createdAt,value
2022-12-08T00:00:44.036Z,3.07
2022-12-08T00:01:44.092Z,3.09
2022-12-08T00:02:44.089Z,3.09
2022-12-08T00:03:44.008Z,3.10
2022-12-08T00:04:43.947Z,3.13
2022-12-08T00:05:43.940Z,3.13
2022-12-08T00:06:43.901Z,3.12
2022-12-08T00:07:43.986Z,3.09
2022-12-08T00:08:43.910Z,3.09
2022-12-08T00:09:43.910Z,3.05
2022-12-08T00:10:51.065Z,3.05
2022-12-08T00:11:44.848Z,3.06
2022-12-08T00:12:43.850Z,3.02
2022-12-08T00:13:43.823Z,2.98
2022-12-08T00:14:43.910Z,2.95
2022-12-08T00:15:43.838Z,2.98
2022-12-08T00:16:43.791Z,3.02
2022-12-08T00:17:43.818Z,3.02
2022-12-08T00:18:43.774Z,3.00
2022-12-08T00:19:43.773Z,2.98
2022-12-08T00:20:43.834Z,2.97
2022-12-08T00:21:43.752Z,2.89
2022-12-08T00:22:43.761Z,2.89
2022-12-08T00:23:43.683Z,2.87
2022-12-08T00:24:43.721Z,2.88
2022-12-08T00:25:43.663Z,2.88
2022-12-08T00:26:43.778Z,2.85
2022-12-08T00:27:43.648Z,2.82
2022-12-08T00:28:43.638Z,2.82
2022-12-08T00:29:43.631Z,2.79
2022-12-08T00:30:43.630Z,2.79
2022-12-08T00:31:43.609Z,2.84
2022-12-08T00:32:43.753Z,2.88
2022-12-08T00:33:43.547Z,2.85
2022-12-08T00:34:43.567Z,2.82
2022-12-08T00:35:43.592Z,2.79
2022-12-08T00:36:43.563Z,2.76
2022-12-08T00:37:43.488Z,2.77
2022-12-08T00:38:43.626Z,2.76
2022-12-08T00:39:43.503Z,2.74
2022-12-08T00:40:43.487Z,2.77
2022-12-08T00:41:43.460Z,2.73
2022-12-08T00:42:43.487Z,2.79
2022-12-08T00:43:43.419Z,2.85
2022-12-08T00:44:43.495Z,2.88
2022-12-08T00:45:43.458Z,2.88
2022-12-08T00:46:43.413Z,2.85
2022-12-08T00:47:43.393Z,2.85
2022-12-08T00:48:43.385Z,2.87
2022-12-08T00:49:43.375Z,2.87
2022-12-08T00:50:43.436Z,2.91
2022-12-08T00:51:43.309Z,2.88
2022-12-08T00:52:43.322Z,2.85
2022-12-08T00:53:43.316Z,2.88
2022-12-08T00:54:43.315Z,2.89
2022-12-08T00:55:43.273Z,2.88
2022-12-08T00:56:43.326Z,2.88
2022-12-08T00:57:43.270Z,2.85
2022-12-08T00:58:43.278Z,2.84
2022-12-08T00:59:43.225Z,2.85
2022-12-08T01:00:43.262Z,2.82
2022-12-08T01:01:43.240Z,2.82
2022-12-08T01:02:43.270Z,2.84
2022-12-08T01:03:43.156Z,2.85
2022-12-08T01:04:43.203Z,2.87
2022-12-08T01:05:43.133Z,2.87
2022-12-08T01:06:43.129Z,2.89
2022-12-08T01:07:43.176Z,2.89
2022-12-08T01:08:43.243Z,2.91
2022-12-08T01:09:43.100Z,2.89
2022-12-08T01:10:43.120Z,2.95
2022-12-08T01:11:43.069Z,2.92
2022-12-08T01:12:43.107Z,2.91
2022-12-08T01:13:43.026Z,2.87
2022-12-08T01:14:43.074Z,2.84
2022-12-08T01:15:43.030Z,2.85
2022-12-08T01:16:43.067Z,2.84
2022-12-08T01:17:43.003Z,2.79
2022-12-08T01:18:43.016Z,2.79
2022-12-08T01:19:42.946Z,2.81
2022-12-08T01:20:43.003Z,2.81
2022-12-08T01:21:42.920Z,2.84
2022-12-08T01:22:42.945Z,2.88
2022-12-08T01:23:42.931Z,2.85
2022-12-08T01:24:42.933Z,2.85
2022-12-08T01:25:42.856Z,2.84
2022-12-08T01:26:42.908Z,2.82
2022-12-08T01:27:42.877Z,2.77
2022-12-08T01:28:42.855Z,2.74
2022-12-08T01:29:42.858Z,2.71
2022-12-08T01:30:42.916Z,2.69
2022-12-08T01:31:42.797Z,2.66
2022-12-08T01:32:42.875Z,2.67
2022-12-08T01:33:42.770Z,2.73
2022-12-08T01:34:42.779Z,2.69
2022-12-08T01:35:42.765Z,2.66
2022-12-08T01:36:42.739Z,2.67
2022-12-08T01:37:42.726Z,2.71
2022-12-08T01:38:42.773Z,2.71
2022-12-08T01:39:42.689Z,2.70
2022-12-08T01:40:42.712Z,2.71
2022-12-08T01:41:42.668Z,2.66
2022-12-08T01:42:42.698Z,2.63
2022-12-08T01:43:42.621Z,2.58
2022-12-08T01:44:42.796Z,2.56
2022-12-08T01:45:43.196Z,2.53
2022-12-08T01:46:42.717Z,2.53
2022-12-08T01:47:42.649Z,2.52
2022-12-08T01:48:42.605Z,2.49
2022-12-08T01:49:42.579Z,2.48
2022-12-08T01:50:42.619Z,2.45
2022-12-08T01:51:42.522Z,2.41
2022-12-08T01:52:42.570Z,2.44
2022-12-08T01:53:42.528Z,2.46
2022-12-08T01:54:42.568Z,2.45
2022-12-08T01:55:42.488Z,2.48
2022-12-08T01:56:42.560Z,2.48
2022-12-08T01:57:42.464Z,2.46
2022-12-08T01:58:42.487Z,2.44
2022-12-08T01:59:42.505Z,2.41
2022-12-08T02:00:42.449Z,2.38
2022-12-08T02:01:42.453Z,2.44
2022-12-08T02:02:42.604Z,2.41
2022-12-08T02:03:42.376Z,2.38
2022-12-08T02:04:42.449Z,2.41
2022-12-08T02:05:42.359Z,2.45
2022-12-08T02:06:42.367Z,2.41
2022-12-08T02:07:42.376Z,2.40
2022-12-08T02:08:42.472Z,2.37
2022-12-08T02:09:42.324Z,2.35
2022-12-08T02:10:42.335Z,2.35
2022-12-08T02:11:42.267Z,2.34
2022-12-08T02:12:42.303Z,2.34
2022-12-08T02:13:42.248Z,2.33
2022-12-08T02:14:42.272Z,2.31
2022-12-08T02:15:42.305Z,2.34
2022-12-08T02:16:42.230Z,2.34
2022-12-08T02:17:42.211Z,2.35
2022-12-08T02:18:42.236Z,2.37
2022-12-08T02:19:42.163Z,2.35
2022-12-08T02:20:42.326Z,2.38
2022-12-08T02:21:42.136Z,2.34
2022-12-08T02:22:42.149Z,2.33
2022-12-08T02:23:42.135Z,2.30
2022-12-08T02:24:42.129Z,2.31
2022-12-08T02:25:42.107Z,2.33
2022-12-08T02:26:42.227Z,2.38
2022-12-08T02:27:42.063Z,2.37
2022-12-08T02:28:42.067Z,2.38
2022-12-08T02:29:42.064Z,2.40
2022-12-08T02:30:42.139Z,2.41
2022-12-08T02:31:42.001Z,2.38
2022-12-08T02:32:42.077Z,2.41
2022-12-08T02:33:41.995Z,2.40
2022-12-08T02:34:42.025Z,2.38
2022-12-08T02:35:41.978Z,2.38
2022-12-08T02:36:41.972Z,2.38
2022-12-08T02:37:41.950Z,2.40
2022-12-08T02:38:42.009Z,2.44
2022-12-08T02:39:41.892Z,2.44
2022-12-08T02:40:41.929Z,2.44
2022-12-08T02:41:41.871Z,2.45
2022-12-08T02:42:41.885Z,2.45
2022-12-08T02:43:41.881Z,2.49
2022-12-08T02:44:41.929Z,2.49
2022-12-08T02:45:41.824Z,2.51
2022-12-08T02:46:41.881Z,2.55
2022-12-08T02:47:41.839Z,2.56
2022-12-08T02:48:41.823Z,2.61
2022-12-08T02:49:41.816Z,2.63
2022-12-08T02:50:41.828Z,2.66
2022-12-08T02:51:41.741Z,2.67
2022-12-08T02:52:41.782Z,2.70
2022-12-08T02:53:41.712Z,2.74
2022-12-08T02:54:41.736Z,2.74
2022-12-08T02:55:41.729Z,2.77
2022-12-08T02:56:41.813Z,2.79
2022-12-08T02:57:41.712Z,2.79
2022-12-08T02:58:41.706Z,2.77
2022-12-08T02:59:41.637Z,2.79
2022-12-08T03:00:41.661Z,2.79
2022-12-08T03:01:41.717Z,2.81
2022-12-08T03:02:41.810Z,2.77
2022-12-08T03:03:41.580Z,2.77
2022-12-08T03:04:41.641Z,2.76
2022-12-08T03:05:41.570Z,2.74
2022-12-08T03:06:41.566Z,2.77
2022-12-08T03:07:41.605Z,2.76
2022-12-08T03:08:41.579Z,2.76
2022-12-08T03:09:41.529Z,2.76
2022-12-08T03:10:41.545Z,2.77
2022-12-08T03:11:41.481Z,2.79
2022-12-08T03:12:41.525Z,2.79
2022-12-08T03:13:41.460Z,2.77
2022-12-08T03:14:41.509Z,2.77
2022-12-08T03:15:41.469Z,2.77
2022-12-08T03:16:41.453Z,2.76
2022-12-08T03:17:41.428Z,2.77
2022-12-08T03:18:43.930Z,2.76
2022-12-08T03:19:41.381Z,2.76
2022-12-08T03:20:41.537Z,2.74
2022-12-08T03:21:41.351Z,2.73
2022-12-08T03:22:41.376Z,2.73
2022-12-08T03:23:41.357Z,2.76
2022-12-08T03:24:41.329Z,2.76
2022-12-08T03:25:41.324Z,2.81
2022-12-08T03:26:41.389Z,2.84
2022-12-08T03:27:41.272Z,2.82
2022-12-08T03:28:41.307Z,2.84
2022-12-08T03:29:41.254Z,2.87
2022-12-08T03:30:41.328Z,2.89
2022-12-08T03:31:41.285Z,2.91
2022-12-08T03:32:41.301Z,2.97
2022-12-08T03:33:41.204Z,3.02
2022-12-08T03:34:41.195Z,3.07
2022-12-08T03:35:41.200Z,3.10
2022-12-08T03:36:41.174Z,3.09
2022-12-08T03:37:41.174Z,3.09
2022-12-08T03:38:41.224Z,3.07
2022-12-08T03:39:41.115Z,3.09
2022-12-08T03:40:41.142Z,3.09
2022-12-08T03:41:41.097Z,3.05
2022-12-08T03:42:41.125Z,3.06
2022-12-08T03:43:41.094Z,3.05
2022-12-08T03:44:41.107Z,3.02
2022-12-08T03:45:41.063Z,3.02
2022-12-08T03:46:41.084Z,3.00
2022-12-08T03:47:41.034Z,2.97
2022-12-08T03:48:41.027Z,2.97
2022-12-08T03:49:41.018Z,2.92
2022-12-08T03:50:41.056Z,2.94
2022-12-08T03:51:40.991Z,2.89
2022-12-08T03:52:41.009Z,2.87
2022-12-08T03:53:40.938Z,2.85
2022-12-08T03:54:40.956Z,2.87
2022-12-08T03:55:40.935Z,2.82
2022-12-08T03:56:41.050Z,2.79
2022-12-08T03:57:40.905Z,2.76
2022-12-08T03:58:40.936Z,2.81
2022-12-08T03:59:40.890Z,2.74
2022-12-08T04:00:40.897Z,2.71
2022-12-08T04:01:40.881Z,2.73
2022-12-08T04:02:40.959Z,2.79
2022-12-08T04:03:40.824Z,2.79
2022-12-08T04:04:40.848Z,2.84
2022-12-08T04:05:40.770Z,2.85
2022-12-08T04:06:40.803Z,2.82
2022-12-08T04:07:40.840Z,2.82
2022-12-08T04:08:40.801Z,2.79
2022-12-08T04:09:40.751Z,2.79
2022-12-08T04:10:40.778Z,2.77
2022-12-08T04:11:40.692Z,2.81
2022-12-08T04:12:40.759Z,2.87
2022-12-08T04:13:40.677Z,2.87
2022-12-08T04:14:40.736Z,2.89
2022-12-08T04:15:40.737Z,2.87
2022-12-08T04:16:40.655Z,2.85
2022-12-08T04:17:40.650Z,2.87
2022-12-08T04:18:40.666Z,2.85
2022-12-08T04:19:40.593Z,2.84
2022-12-08T04:20:40.641Z,2.84
2022-12-08T04:21:40.588Z,2.84
2022-12-08T04:22:40.549Z,2.84
2022-12-08T04:23:40.603Z,2.85
2022-12-08T04:24:40.546Z,2.84
2022-12-08T04:25:40.553Z,2.84
2022-12-08T04:26:40.552Z,2.82
2022-12-08T04:27:40.505Z,2.84
2022-12-08T04:28:40.502Z,2.85
2022-12-08T04:29:40.486Z,2.89
2022-12-08T04:30:40.494Z,2.92
2022-12-08T04:31:40.556Z,2.91
2022-12-08T04:32:45.789Z,2.92
2022-12-08T04:33:41.464Z,2.95
2022-12-08T04:34:40.423Z,3.00
2022-12-08T04:35:40.418Z,3.05
2022-12-08T04:36:40.367Z,3.06
2022-12-08T04:37:40.416Z,3.06
2022-12-08T04:38:40.395Z,3.07
2022-12-08T04:39:40.359Z,3.10
2022-12-08T04:40:40.356Z,3.13
2022-12-08T04:41:40.340Z,3.16
2022-12-08T04:42:40.298Z,3.20
2022-12-08T04:43:40.335Z,3.23
2022-12-08T04:44:40.378Z,3.25
2022-12-08T04:45:40.307Z,3.27
2022-12-08T04:46:43.361Z,3.30
2022-12-08T04:47:40.249Z,3.30
2022-12-08T04:48:40.239Z,3.27
2022-12-08T04:49:40.229Z,3.28
2022-12-08T04:50:40.291Z,3.33
2022-12-08T04:51:40.226Z,3.33
2022-12-08T04:52:40.186Z,3.31
2022-12-08T04:53:46.122Z,3.30
2022-12-08T04:54:41.128Z,3.30
2022-12-08T04:55:40.167Z,3.30
2022-12-08T04:56:40.215Z,3.30
2022-12-08T04:57:40.150Z,3.28
2022-12-08T04:58:40.103Z,3.27
2022-12-08T04:59:40.082Z,3.27
2022-12-08T05:00:40.099Z,3.27
2022-12-08T05:01:40.240Z,3.25
2022-12-08T05:02:40.153Z,3.25
2022-12-08T05:03:40.057Z,3.24
2022-12-08T05:04:39.994Z,3.24
2022-12-08T05:05:40.040Z,3.27
2022-12-08T05:06:40.001Z,3.28
2022-12-08T05:07:40.021Z,3.28
2022-12-08T05:08:39.994Z,3.28
2022-12-08T05:09:40.005Z,3.25
2022-12-08T05:10:39.937Z,3.25
2022-12-08T05:11:43.920Z,3.23
2022-12-08T05:12:40.930Z,3.23
2022-12-08T05:13:39.915Z,3.21
2022-12-08T05:14:39.902Z,3.20
2022-12-08T05:15:39.913Z,3.20
2022-12-08T05:16:39.900Z,3.18
2022-12-08T05:17:39.890Z,3.16
2022-12-08T05:18:39.852Z,3.15
2022-12-08T05:19:39.857Z,3.13
2022-12-08T05:20:39.980Z,3.15
2022-12-08T05:21:39.814Z,3.13
2022-12-08T05:22:39.777Z,3.12
2022-12-08T05:23:39.826Z,3.12
2022-12-08T05:24:45.602Z,3.10
2022-12-08T05:25:40.815Z,3.09
2022-12-08T05:26:39.744Z,3.06
2022-12-08T05:27:39.728Z,3.05
2022-12-08T05:28:41.809Z,3.03
2022-12-08T05:29:39.697Z,3.02
2022-12-08T05:30:39.659Z,2.98
2022-12-08T05:31:39.760Z,2.95
2022-12-08T05:32:39.643Z,2.92
2022-12-08T05:33:39.687Z,2.87
2022-12-08T05:34:39.646Z,2.82
2022-12-08T05:35:39.638Z,2.81
2022-12-08T05:36:39.617Z,2.76
2022-12-08T05:37:39.640Z,2.73
2022-12-08T05:38:39.561Z,2.70
2022-12-08T05:39:39.599Z,2.69
2022-12-08T05:40:39.556Z,2.69
2022-12-08T05:41:39.550Z,2.67
2022-12-08T05:42:39.501Z,2.66
2022-12-08T05:43:39.575Z,2.63
2022-12-08T05:44:39.480Z,2.53
2022-12-08T05:45:39.575Z,2.52
2022-12-08T05:46:39.477Z,2.52
2022-12-08T05:47:39.470Z,2.51
2022-12-08T05:48:39.458Z,2.49
2022-12-08T05:49:39.472Z,2.49
2022-12-08T05:50:39.414Z,2.48
2022-12-08T05:51:39.438Z,2.48
2022-12-08T05:52:39.413Z,2.48
2022-12-08T05:53:39.428Z,2.49
2022-12-08T05:54:39.401Z,2.46
2022-12-08T05:55:39.464Z,2.46
2022-12-08T05:56:39.340Z,2.44
2022-12-08T05:57:39.373Z,2.45
2022-12-08T05:58:39.349Z,2.45
2022-12-08T05:59:39.325Z,2.45
2022-12-08T06:00:39.305Z,2.44
2022-12-08T06:01:39.371Z,2.44
2022-12-08T06:02:39.346Z,2.44
2022-12-08T06:03:39.292Z,2.45
2022-12-08T06:04:39.227Z,2.44
2022-12-08T06:05:39.261Z,2.45
2022-12-08T06:06:39.222Z,2.46
2022-12-08T06:07:39.333Z,2.45
2022-12-08T06:08:39.193Z,2.45
2022-12-08T06:09:39.186Z,2.44
2022-12-08T06:10:39.145Z,2.45
2022-12-08T06:11:39.187Z,2.46
2022-12-08T06:12:39.144Z,2.45
2022-12-08T06:13:39.257Z,2.46
2022-12-08T06:14:39.094Z,2.46
2022-12-08T06:15:39.135Z,2.45
2022-12-08T06:16:39.122Z,2.46
2022-12-08T06:17:39.127Z,2.48
2022-12-08T06:18:39.101Z,2.48
2022-12-08T06:19:39.088Z,2.48
2022-12-08T06:20:39.036Z,2.48
2022-12-08T06:21:39.029Z,2.49
2022-12-08T06:22:38.983Z,2.49
2022-12-08T06:23:39.034Z,2.49
2022-12-08T06:24:38.978Z,2.52
2022-12-08T06:25:39.049Z,2.51
2022-12-08T06:26:38.957Z,2.52
2022-12-08T06:27:38.953Z,2.53
2022-12-08T06:28:38.937Z,2.53
2022-12-08T06:29:38.920Z,2.52
2022-12-08T06:30:38.895Z,2.55
2022-12-08T06:31:39.103Z,2.56
2022-12-08T06:32:38.852Z,2.56
2022-12-08T06:33:38.907Z,2.58
2022-12-08T06:34:38.866Z,2.58
2022-12-08T06:35:38.851Z,2.61
2022-12-08T06:36:38.849Z,2.59
2022-12-08T06:37:38.863Z,2.63
2022-12-08T06:38:43.059Z,2.64
2022-12-08T06:39:38.851Z,2.64
2022-12-08T06:40:38.752Z,2.66
2022-12-08T06:41:38.821Z,2.67
2022-12-08T06:42:38.750Z,2.69
2022-12-08T06:43:38.783Z,2.73
2022-12-08T06:44:38.720Z,2.76
2022-12-08T06:45:38.813Z,2.79
2022-12-08T06:46:38.716Z,2.82
2022-12-08T06:47:38.687Z,2.84
2022-12-08T06:48:38.688Z,2.85
2022-12-08T06:49:38.780Z,2.88
2022-12-08T06:50:38.630Z,2.87
2022-12-08T06:51:38.678Z,2.87
2022-12-08T06:52:47.330Z,2.87
2022-12-08T06:53:39.660Z,2.89
2022-12-08T06:54:38.602Z,2.91
2022-12-08T06:56:39.577Z,2.92
2022-12-08T06:57:38.569Z,2.94
2022-12-08T06:58:38.520Z,2.94
2022-12-08T06:59:38.567Z,2.97
2022-12-08T07:00:38.515Z,2.95
2022-12-08T07:01:38.677Z,3.02
2022-12-08T07:02:38.525Z,2.98
2022-12-08T07:03:38.494Z,3.00
2022-12-08T07:04:38.443Z,3.00
2022-12-08T07:05:38.485Z,2.98
2022-12-08T07:06:38.456Z,2.98
2022-12-08T07:07:38.527Z,3.02
2022-12-08T07:08:38.397Z,2.98
2022-12-08T07:09:38.410Z,3.02
2022-12-08T07:10:38.368Z,3.05
2022-12-08T07:11:38.409Z,3.03
2022-12-08T07:12:38.346Z,3.06
2022-12-08T07:13:38.410Z,3.05
2022-12-08T07:14:38.323Z,3.07
2022-12-08T07:15:38.322Z,3.09
2022-12-08T07:16:38.322Z,3.09
2022-12-08T07:17:38.339Z,3.10
2022-12-08T07:18:38.321Z,3.09
2022-12-08T07:19:38.398Z,3.10
2022-12-08T07:20:38.268Z,3.10
2022-12-08T07:21:38.255Z,3.10
2022-12-08T07:22:38.204Z,3.10
2022-12-08T07:23:38.251Z,3.10
2022-12-08T07:24:38.184Z,3.10
2022-12-08T07:25:38.324Z,3.12
2022-12-08T07:26:38.184Z,3.10
2022-12-08T07:27:38.173Z,3.10
2022-12-08T07:28:38.154Z,3.12
2022-12-08T07:29:38.154Z,3.12
2022-12-08T07:30:38.161Z,3.13
2022-12-08T07:31:38.273Z,3.12
2022-12-08T07:32:38.079Z,3.12
2022-12-08T07:33:38.103Z,3.13
2022-12-08T07:34:38.083Z,3.12
2022-12-08T07:35:38.068Z,3.13
2022-12-08T07:36:38.052Z,3.10
2022-12-08T07:37:38.171Z,3.12
2022-12-08T07:38:38.009Z,3.12
2022-12-08T07:39:38.051Z,3.15
2022-12-08T07:40:37.994Z,3.15
2022-12-08T07:41:38.014Z,3.15
2022-12-08T07:42:37.975Z,3.16
2022-12-08T07:43:38.087Z,3.16
2022-12-08T07:44:37.941Z,3.16
2022-12-08T07:45:37.944Z,3.15
2022-12-08T07:46:37.959Z,3.16
2022-12-08T07:47:37.938Z,3.16
2022-12-08T07:48:37.904Z,3.16
2022-12-08T07:49:37.909Z,3.16
2022-12-08T07:50:37.840Z,3.16
2022-12-08T07:51:37.887Z,3.18
2022-12-08T07:52:37.811Z,3.16
2022-12-08T07:53:37.846Z,3.16
2022-12-08T07:54:37.819Z,3.18
2022-12-08T07:55:37.849Z,3.18
2022-12-08T07:56:37.788Z,3.18
2022-12-08T07:57:37.784Z,3.20
2022-12-08T07:58:37.742Z,3.20
2022-12-08T07:59:37.788Z,3.21
2022-12-08T08:00:37.819Z,3.23
2022-12-08T08:01:37.861Z,3.21
2022-12-08T08:02:37.808Z,3.21
2022-12-08T08:03:37.703Z,3.23
2022-12-08T08:04:37.714Z,3.21
2022-12-08T08:05:37.699Z,3.23
2022-12-08T08:06:37.670Z,3.21
2022-12-08T08:07:37.818Z,3.21
2022-12-08T08:08:37.640Z,3.21
2022-12-08T08:09:37.625Z,3.21
2022-12-08T08:10:37.583Z,3.23
2022-12-08T08:11:37.628Z,3.21
2022-12-08T08:12:37.566Z,3.23
2022-12-08T08:13:37.633Z,3.23
2022-12-08T08:14:37.555Z,3.23
2022-12-08T08:15:37.813Z,3.23
2022-12-08T08:16:38.753Z,3.23
2022-12-08T08:17:37.717Z,3.23
2022-12-08T08:18:37.475Z,3.23
2022-12-08T08:19:37.631Z,3.23
2022-12-08T08:20:37.483Z,3.23
2022-12-08T08:21:45.388Z,3.25
2022-12-08T08:22:38.436Z,3.24
2022-12-08T08:23:37.465Z,3.24
2022-12-08T08:24:43.144Z,3.25
2022-12-08T08:25:38.554Z,3.25
2022-12-08T08:26:37.407Z,3.25
2022-12-08T08:27:37.399Z,3.24
2022-12-08T08:28:37.365Z,3.25
2022-12-08T08:29:37.369Z,3.23
2022-12-08T08:30:37.328Z,3.25
2022-12-08T08:31:37.468Z,3.25
2022-12-08T08:32:37.292Z,3.25
2022-12-08T08:33:37.335Z,3.25
2022-12-08T08:34:37.296Z,3.25
2022-12-08T08:35:37.288Z,3.25
2022-12-08T08:36:37.273Z,3.25
2022-12-08T08:37:37.276Z,3.25
2022-12-08T08:38:37.277Z,3.27
2022-12-08T08:39:37.294Z,3.25
2022-12-08T08:40:37.258Z,3.25
2022-12-08T08:41:37.179Z,3.28
2022-12-08T08:42:37.191Z,3.27
2022-12-08T08:43:38.665Z,3.25
2022-12-08T08:44:37.170Z,3.27
2022-12-08T08:45:37.158Z,3.28
2022-12-08T08:46:37.230Z,3.28
2022-12-08T08:47:37.107Z,3.28
2022-12-08T08:48:37.139Z,3.30
2022-12-08T08:49:37.104Z,3.30
2022-12-08T08:50:37.856Z,3.30
2022-12-08T08:51:37.080Z,3.28
2022-12-08T08:52:37.099Z,3.30
2022-12-08T08:53:37.017Z,3.30
2022-12-08T08:54:37.045Z,3.30
2022-12-08T08:55:37.061Z,3.31
2022-12-08T08:56:37.026Z,3.30
2022-12-08T08:57:37.000Z,3.30
2022-12-08T08:58:37.019Z,3.33
2022-12-08T08:59:36.950Z,3.33
2022-12-08T09:00:36.984Z,3.34
2022-12-08T09:01:36.980Z,3.34
2022-12-08T09:02:36.937Z,3.34
2022-12-08T09:03:36.923Z,3.34
2022-12-08T09:04:36.973Z,3.36
2022-12-08T09:05:36.975Z,3.36
2022-12-08T09:06:36.988Z,3.34
2022-12-08T09:07:37.110Z,3.36
2022-12-08T09:08:36.848Z,3.39
2022-12-08T09:09:36.841Z,3.36
2022-12-08T09:10:36.854Z,3.36
2022-12-08T09:11:36.788Z,3.36
2022-12-08T09:12:36.838Z,3.36
2022-12-08T09:13:36.874Z,3.39
2022-12-08T09:14:36.780Z,3.39
2022-12-08T09:15:36.839Z,3.43
2022-12-08T09:16:41.881Z,3.43
2022-12-08T09:17:37.737Z,3.43
2022-12-08T09:18:36.736Z,3.43
2022-12-08T09:19:36.743Z,3.44
2022-12-08T09:20:36.731Z,3.43
2022-12-08T09:21:36.673Z,3.44
2022-12-08T09:22:36.732Z,3.43
2022-12-08T09:23:36.658Z,3.43
2022-12-08T09:24:36.676Z,3.46
2022-12-08T09:25:36.642Z,3.44
2022-12-08T09:26:36.619Z,3.46
2022-12-08T09:27:36.617Z,3.46
2022-12-08T09:28:36.591Z,3.44
2022-12-08T09:29:36.651Z,3.47
2022-12-08T09:30:36.598Z,3.47
2022-12-08T09:31:36.614Z,3.47
2022-12-08T09:32:36.569Z,3.50
2022-12-08T09:33:36.542Z,3.52
2022-12-08T09:34:36.524Z,3.50
2022-12-08T09:35:36.502Z,3.50
2022-12-08T09:36:36.481Z,3.52
2022-12-08T09:37:36.612Z,3.50
2022-12-08T09:38:36.498Z,3.53
2022-12-08T09:39:36.425Z,3.54
2022-12-08T09:40:36.462Z,3.53
2022-12-08T09:41:41.801Z,3.53
2022-12-08T09:42:37.529Z,3.52
2022-12-08T09:43:36.392Z,3.53
2022-12-08T09:44:36.388Z,3.54
2022-12-08T09:45:36.379Z,3.53
2022-12-08T09:46:36.423Z,3.57
2022-12-08T09:47:36.602Z,3.52
2022-12-08T09:48:36.482Z,3.57
2022-12-08T09:49:36.276Z,3.60
2022-12-08T09:50:36.306Z,3.61
2022-12-08T09:51:36.293Z,3.57
2022-12-08T09:52:36.287Z,3.58
2022-12-08T09:53:36.814Z,3.58
2022-12-08T09:54:36.334Z,3.58
2022-12-08T09:55:36.206Z,3.60
2022-12-08T09:56:36.224Z,3.60
2022-12-08T09:57:36.220Z,3.60
2022-12-08T09:58:36.233Z,3.62
2022-12-08T09:59:36.167Z,3.60
2022-12-08T10:00:36.314Z,3.60
2022-12-08T10:01:36.198Z,3.61
2022-12-08T10:02:36.148Z,3.60
2022-12-08T10:03:36.136Z,3.62
2022-12-08T10:04:36.196Z,3.62
2022-12-08T10:05:36.180Z,3.65
2022-12-08T10:06:36.165Z,3.64
2022-12-08T10:07:36.061Z,3.61
2022-12-08T10:08:36.180Z,3.58
2022-12-08T10:09:36.029Z,3.58
2022-12-08T10:10:36.035Z,3.60
2022-12-08T10:11:36.040Z,3.62
2022-12-08T10:12:36.157Z,3.65
2022-12-08T10:13:35.979Z,3.68
2022-12-08T10:14:35.990Z,3.67
2022-12-08T10:15:35.978Z,3.68
2022-12-08T10:16:35.997Z,3.67
2022-12-08T10:17:35.960Z,3.71
2022-12-08T10:18:36.001Z,3.65
2022-12-08T10:19:35.882Z,3.65
2022-12-08T10:20:35.940Z,3.67
2022-12-08T10:21:35.880Z,3.70
2022-12-08T10:22:38.760Z,3.72
2022-12-08T10:23:36.899Z,3.75
2022-12-08T10:24:35.862Z,3.72
2022-12-08T10:25:35.853Z,3.67
2022-12-08T10:26:35.862Z,3.64
2022-12-08T10:27:35.787Z,3.65
2022-12-08T10:28:40.053Z,3.67
2022-12-08T10:29:36.823Z,3.68
2022-12-08T10:30:35.812Z,3.70
2022-12-08T10:31:35.825Z,3.68
2022-12-08T10:32:35.773Z,3.68
2022-12-08T10:33:35.715Z,3.68
2022-12-08T10:34:35.724Z,3.68
2022-12-08T10:35:35.757Z,3.70
2022-12-08T10:36:35.707Z,3.71
2022-12-08T10:37:35.684Z,3.71
2022-12-08T10:38:35.703Z,3.78
2022-12-08T10:39:35.643Z,3.75
2022-12-08T10:40:40.584Z,3.71
2022-12-08T10:41:36.716Z,3.75
2022-12-08T10:42:35.628Z,3.71
2022-12-08T10:43:35.616Z,3.76
2022-12-08T10:44:35.598Z,3.76
2022-12-08T10:45:35.587Z,3.80
2022-12-08T10:46:35.683Z,3.82
2022-12-08T10:47:35.559Z,3.78
2022-12-08T10:48:35.579Z,3.75
2022-12-08T10:49:35.497Z,3.76
2022-12-08T10:50:35.517Z,3.79
2022-12-08T10:51:35.509Z,3.79
2022-12-08T10:52:35.483Z,3.78
2022-12-08T10:53:35.599Z,3.83
2022-12-08T10:54:35.503Z,3.86
2022-12-08T10:55:35.429Z,3.83
2022-12-08T10:56:35.467Z,3.80
2022-12-08T10:57:35.379Z,3.83
2022-12-08T10:58:35.419Z,3.83
2022-12-08T10:59:35.454Z,3.86
2022-12-08T11:00:35.671Z,3.90
2022-12-08T11:01:35.523Z,3.86
2022-12-08T11:02:35.387Z,3.86
2022-12-08T11:03:35.343Z,3.86
2022-12-08T11:04:35.331Z,3.88
2022-12-08T11:05:35.349Z,3.88
2022-12-08T11:06:35.328Z,3.86
2022-12-08T11:07:35.262Z,3.89
2022-12-08T11:08:35.325Z,3.90
2022-12-08T11:09:35.243Z,3.92
2022-12-08T11:10:35.239Z,3.92
2022-12-08T11:11:35.279Z,3.88
2022-12-08T11:12:35.223Z,3.89
2022-12-08T11:13:35.201Z,3.90
2022-12-08T11:14:35.230Z,3.94
2022-12-08T11:15:35.154Z,4.00
2022-12-08T11:16:35.187Z,3.94
2022-12-08T11:17:35.281Z,3.92
2022-12-08T11:18:35.171Z,3.94
2022-12-08T11:19:35.145Z,3.96
2022-12-08T11:20:35.149Z,3.98
2022-12-08T11:21:35.085Z,3.94
2022-12-08T11:22:35.093Z,3.94
2022-12-08T11:23:35.105Z,3.94
2022-12-08T11:24:37.618Z,3.94
2022-12-08T11:25:35.042Z,3.96
2022-12-08T11:26:35.065Z,3.96
2022-12-08T11:27:35.021Z,3.94
2022-12-08T11:28:35.064Z,3.97
2022-12-08T11:29:34.986Z,4.01
2022-12-08T11:30:34.987Z,3.97
2022-12-08T11:31:35.078Z,3.98
2022-12-08T11:32:35.008Z,4.00
2022-12-08T11:33:34.917Z,3.98
2022-12-08T11:34:34.937Z,4.03
2022-12-08T11:35:34.938Z,4.00
2022-12-08T11:36:34.908Z,4.00
2022-12-08T11:37:35.429Z,4.03
2022-12-08T11:38:34.999Z,4.06
2022-12-08T11:39:34.840Z,4.06
2022-12-08T11:40:34.884Z,4.03
2022-12-08T11:41:34.848Z,4.04
2022-12-08T11:42:34.829Z,4.06
2022-12-08T11:43:34.819Z,4.06
2022-12-08T11:44:34.810Z,4.12
2022-12-08T11:45:34.835Z,4.18
2022-12-08T11:46:34.866Z,4.16
2022-12-08T11:47:34.779Z,4.15
2022-12-08T11:48:34.789Z,4.16
2022-12-08T11:49:34.711Z,4.19
2022-12-08T11:50:34.755Z,4.18
2022-12-08T11:51:34.714Z,4.18
2022-12-08T11:52:34.703Z,4.14
2022-12-08T11:53:34.720Z,4.15
2022-12-08T11:54:34.693Z,4.19
2022-12-08T11:55:37.329Z,4.15
2022-12-08T11:56:34.669Z,4.14
2022-12-08T11:57:34.658Z,4.14
2022-12-08T11:58:34.615Z,4.15
2022-12-08T11:59:34.650Z,4.18
2022-12-08T12:00:34.585Z,4.18
2022-12-08T12:01:39.323Z,4.15
2022-12-08T12:02:35.654Z,4.15
2022-12-08T12:03:34.641Z,4.18
2022-12-08T12:04:34.543Z,4.15
2022-12-08T12:06:05.355Z,4.16
2022-12-08T12:06:54.312Z,4.18
2022-12-08T12:07:35.477Z,4.15
2022-12-08T12:08:38.770Z,4.14
2022-12-08T12:09:34.467Z,4.10
2022-12-08T12:10:34.453Z,4.14
2022-12-08T12:11:34.563Z,4.10
2022-12-08T12:12:39.462Z,4.08
2022-12-08T12:13:35.414Z,4.07
2022-12-08T12:14:34.423Z,4.08
2022-12-08T12:15:34.357Z,4.08
2022-12-08T12:16:34.459Z,4.08
2022-12-08T12:17:34.366Z,4.10
2022-12-08T12:18:34.363Z,4.14
2022-12-08T12:19:34.345Z,4.12
2022-12-08T12:20:34.365Z,4.12
2022-12-08T12:21:34.277Z,4.12
2022-12-08T12:22:34.307Z,4.12
2022-12-08T12:23:34.344Z,4.16
2022-12-08T12:24:36.110Z,4.21
2022-12-08T12:25:34.259Z,4.21
2022-12-08T12:26:34.285Z,4.21
2022-12-08T12:27:34.209Z,4.22
2022-12-08T12:28:34.251Z,4.16
2022-12-08T12:29:34.201Z,4.19
2022-12-08T12:30:34.265Z,4.18
2022-12-08T12:31:34.188Z,4.15
2022-12-08T12:32:34.180Z,4.12
2022-12-08T12:33:34.160Z,4.14
2022-12-08T12:34:34.168Z,4.08
2022-12-08T12:35:34.125Z,4.08
2022-12-08T12:36:34.127Z,4.08
2022-12-08T12:37:34.158Z,4.08
2022-12-08T12:38:34.119Z,4.10
2022-12-08T12:39:34.054Z,4.12
2022-12-08T12:40:34.089Z,4.14
2022-12-08T12:41:34.151Z,4.12
2022-12-08T12:42:34.024Z,4.12
2022-12-08T12:43:34.019Z,4.10
2022-12-08T12:44:34.013Z,4.12
2022-12-08T12:45:33.984Z,4.12
2022-12-08T12:46:34.092Z,4.14
2022-12-08T12:47:34.063Z,4.15
2022-12-08T12:48:33.988Z,4.19
2022-12-08T12:49:33.921Z,4.19
2022-12-08T12:50:34.084Z,4.15
2022-12-08T12:51:33.922Z,4.12
2022-12-08T12:52:33.906Z,4.12
2022-12-08T12:53:34.030Z,4.15
2022-12-08T12:54:33.872Z,4.14
2022-12-08T12:55:33.866Z,4.14
2022-12-08T12:56:33.863Z,4.12
2022-12-08T12:57:33.826Z,4.12
2022-12-08T12:58:33.806Z,4.12
2022-12-08T12:59:33.873Z,4.12
2022-12-08T13:00:33.774Z,4.10
2022-12-08T13:01:33.894Z,4.12
2022-12-08T13:02:33.831Z,4.08
2022-12-08T13:03:33.751Z,4.07
2022-12-08T13:04:33.726Z,4.07
2022-12-08T13:05:33.764Z,4.10
2022-12-08T13:06:34.441Z,4.06
2022-12-08T13:07:33.735Z,4.04
2022-12-08T13:08:33.729Z,4.04
2022-12-08T13:09:33.681Z,4.04
2022-12-08T13:10:33.651Z,4.04
2022-12-08T13:11:33.727Z,4.01
2022-12-08T13:12:33.630Z,4.03
2022-12-08T13:13:33.666Z,4.03
2022-12-08T13:14:33.647Z,4.01
2022-12-08T13:15:33.614Z,4.00
2022-12-08T13:16:33.670Z,4.00
2022-12-08T13:17:33.704Z,4.00
2022-12-08T13:18:33.522Z,4.00
2022-12-08T13:19:33.569Z,3.97